Time;durP1;ratioP1;P1;durP2;ratioP2;P2;SDS_P1;SDS_P2;PMS_P1;PMS_P2;Temp;Humidity;BMP_temperature;BMP_pressure;BME280_temperature;BME280_humidity;BME280_pressure;Samples;Min_cycle;Max_cycle;Signal;HPM_P1;HPM_P2
2023/06/09 00:00:31;;;;;;;10.48;8.75;;;;;;;18.95;51.70;96922.75;4811852;29;20043;-81
2023/06/09 00:02:57;;;;;;;11.45;9.85;;;;;;;18.94;52.02;96918.59;4795186;29;20196;-80
2023/06/09 00:05:23;;;;;;;11.43;10.02;;;;;;;18.88;52.14;96916.09;4808589;29;20152;-80
2023/06/09 00:07:52;;;;;;;12.35;10.77;;;;;;;18.81;52.55;96909.66;4773074;29;20214;-80
2023/06/09 00:10:18;;;;;;;13.15;10.70;;;;;;;18.84;52.14;96915.13;4814322;29;20324;-80
2023/06/09 00:12:44;;;;;;;10.82;9.13;;;;;;;18.77;52.20;96898.94;4824537;29;20281;-79
2023/06/09 00:15:29;;;;;;;9.27;8.10;;;;;;;18.89;52.02;96911.56;4809994;29;20111;-81
2023/06/09 00:17:55;;;;;;;9.45;8.48;;;;;;;18.78;52.72;96902.34;4790997;29;20107;-80
2023/06/09 00:20:20;;;;;;;11.05;8.43;;;;;;;18.76;52.52;96893.97;4800369;29;20438;-80
2023/06/09 00:22:48;;;;;;;12.52;10.30;;;;;;;18.72;52.64;96891.16;4780583;29;20108;-81
2023/06/09 00:25:15;;;;;;;15.02;12.20;;;;;;;18.74;52.08;96886.34;4798226;29;20203;-80
2023/06/09 00:27:47;;;;;;;11.02;9.68;;;;;;;18.82;52.49;96893.56;4774970;29;20247;-80
2023/06/09 00:30:20;;;;;;;10.70;9.60;;;;;;;18.92;52.18;96887.22;4789911;29;20207;-80
2023/06/09 00:32:45;;;;;;;12.05;10.50;;;;;;;18.77;52.77;96885.75;4827872;29;20307;-81
2023/06/09 00:35:12;;;;;;;12.55;11.25;;;;;;;18.75;52.87;96887.91;4795169;29;20294;-80
2023/06/09 00:37:38;;;;;;;14.65;11.57;;;;;;;18.71;52.58;96881.66;4786849;29;20163;-80
2023/06/09 00:40:04;;;;;;;13.23;11.20;;;;;;;18.71;52.54;96874.56;4792434;29;20508;-80
2023/06/09 00:42:30;;;;;;;10.18;9.10;;;;;;;18.65;52.67;96870.50;4819089;29;20339;-80
2023/06/09 00:44:55;;;;;;;9.38;8.15;;;;;;;18.61;53.33;96881.94;4810420;29;20295;-80
2023/06/09 00:47:21;;;;;;;9.20;8.30;;;;;;;18.58;53.19;96878.06;4809262;29;20168;-80
2023/06/09 00:49:47;;;;;;;8.25;7.45;;;;;;;18.65;53.21;96882.91;4775395;29;20283;-80
2023/06/09 00:52:14;;;;;;;8.57;7.68;;;;;;;18.66;52.98;96887.06;4787528;29;20318;-79
2023/06/09 00:54:40;;;;;;;8.27;7.40;;;;;;;18.68;52.80;96882.31;4805282;29;20176;-80
2023/06/09 00:57:07;;;;;;;8.07;7.28;;;;;;;18.67;52.61;96883.38;4806335;29;20462;-79
2023/06/09 00:59:34;;;;;;;7.75;7.05;;;;;;;18.68;52.64;96887.56;4786490;29;20421;-78
2023/06/09 01:02:00;;;;;;;7.70;6.90;;;;;;;18.62;52.68;96880.88;4800141;23;20056;-80
2023/06/09 01:04:26;;;;;;;7.82;7.03;;;;;;;18.53;52.53;96886.88;4774929;29;20033;-80
2023/06/09 01:07:00;;;;;;;7.55;6.85;;;;;;;18.47;52.71;96885.47;4771837;29;20206;-80
2023/06/09 01:09:50;;;;;;;7.07;6.38;;;;;;;18.54;53.08;96887.63;4785895;29;20669;-80
2023/06/09 01:12:20;;;;;;;8.07;7.28;;;;;;;18.38;53.62;96889.13;4785388;29;20086;-80
2023/06/09 01:14:54;;;;;;;8.07;7.28;;;;;;;18.39;54.40;96885.41;4784454;29;20643;-80
2023/06/09 01:17:23;;;;;;;7.93;6.95;;;;;;;18.32;53.98;96891.13;4767043;29;20502;-81
2023/06/09 01:19:51;;;;;;;8.90;7.53;;;;;;;18.30;54.10;96893.25;4786907;29;20107;-81
2023/06/09 01:22:27;;;;;;;8.40;7.47;;;;;;;18.28;53.82;96884.88;4782987;29;20258;-81
2023/06/09 01:25:04;;;;;;;8.02;7.25;;;;;;;18.25;54.03;96888.09;4770485;29;20620;-79
2023/06/09 01:27:32;;;;;;;9.25;8.13;;;;;;;18.19;53.96;96891.97;4783035;29;20211;-80
2023/06/09 01:29:58;;;;;;;8.75;7.85;;;;;;;18.20;54.10;96878.47;4787061;29;20173;-80
2023/06/09 01:32:25;;;;;;;10.23;7.95;;;;;;;18.11;54.67;96886.34;4767070;29;20533;-78
2023/06/09 01:34:50;;;;;;;7.93;7.13;;;;;;;18.09;54.31;96885.84;4785628;29;20312;-81
2023/06/09 01:37:16;;;;;;;8.20;7.40;;;;;;;17.98;54.57;96876.63;4785759;29;20248;-80
2023/06/09 01:39:41;;;;;;;12.40;7.72;;;;;;;17.99;54.34;96875.53;4782180;29;20412;-81
2023/06/09 01:42:07;;;;;;;9.60;7.82;;;;;;;17.99;54.57;96875.53;4754659;29;20785;-81
2023/06/09 01:44:34;;;;;;;8.57;7.68;;;;;;;18.03;54.75;96876.50;4781893;29;20437;-80
2023/06/09 01:46:59;;;;;;;7.90;7.10;;;;;;;17.96;54.73;96870.88;4768689;29;20174;-81
2023/06/09 01:49:31;;;;;;;7.78;7.00;;;;;;;18.14;54.70;96879.66;4784404;29;20244;-80
2023/06/09 01:52:04;;;;;;;8.93;7.45;;;;;;;18.05;54.88;96870.94;4791775;29;20220;-81
2023/06/09 01:55:00;;;;;;;8.13;7.35;;;;;;;18.17;54.66;96875.69;4755985;29;20115;-81
2023/06/09 01:57:30;;;;;;;8.68;7.63;;;;;;;18.03;54.49;96871.25;4776388;29;20124;-81
2023/06/09 02:00:04;;;;;;;7.45;6.68;;;;;;;18.11;54.90;96875.00;4770687;29;20259;-80
2023/06/09 02:02:32;;;;;;;7.90;7.10;;;;;;;18.08;54.58;96868.50;4777962;29;20169;-81
2023/06/09 02:04:58;;;;;;;7.22;6.53;;;;;;;18.05;54.87;96866.44;4737816;29;20261;-80
2023/06/09 02:07:24;;;;;;;6.88;6.10;;;;;;;17.95;54.86;96861.41;4767082;29;20228;-80
2023/06/09 02:10:15;;;;;;;7.00;6.30;;;;;;;17.94;55.00;96865.13;4779184;29;20282;-80
2023/06/09 02:12:41;;;;;;;7.68;6.78;;;;;;;17.85;55.38;96861.63;4754485;29;20293;-81
2023/06/09 02:15:07;;;;;;;7.65;6.95;;;;;;;17.80;55.80;96870.41;4767469;29;20356;-80
2023/06/09 02:17:33;;;;;;;8.02;7.10;;;;;;;17.82;55.88;96870.13;4767440;29;20117;-81
2023/06/09 02:19:59;;;;;;;7.60;6.88;;;;;;;17.77;56.18;96869.16;4766410;29;20186;-81
2023/06/09 02:22:25;;;;;;;8.05;7.25;;;;;;;17.72;55.91;96879.81;4753497;29;20279;-80
2023/06/09 02:24:51;;;;;;;8.25;7.47;;;;;;;17.59;56.31;96865.59;4748957;29;20089;-80
2023/06/09 02:27:17;;;;;;;8.70;7.43;;;;;;;17.48;56.51;96863.47;4767977;29;20193;-81
2023/06/09 02:29:42;;;;;;;7.80;7.00;;;;;;;17.41;56.55;96859.44;4753293;29;20276;-81
2023/06/09 02:32:08;;;;;;;8.02;7.22;;;;;;;17.46;56.34;96863.00;4751868;29;20302;-81
2023/06/09 02:34:34;;;;;;;7.97;7.18;;;;;;;17.47;56.29;96867.22;4764779;29;20221;-80
2023/06/09 02:37:00;;;;;;;7.80;7.00;;;;;;;17.44;56.64;96859.91;4736761;29;20276;-80
2023/06/09 02:39:26;;;;;;;7.78;7.05;;;;;;;17.46;56.33;96866.44;4766978;29;20192;-80
2023/06/09 02:41:52;;;;;;;7.78;6.97;;;;;;;17.40;56.91;96862.34;4768927;29;20239;-81
2023/06/09 02:44:17;;;;;;;7.35;6.65;;;;;;;17.42;56.61;96866.22;4762342;29;20724;-81
2023/06/09 02:46:44;;;;;;;9.57;7.22;;;;;;;17.38;56.63;96851.34;4766005;29;20201;-79
2023/06/09 02:49:10;;;;;;;8.05;7.25;;;;;;;17.35;57.05;96850.06;4735236;29;20612;-81
2023/06/09 02:51:36;;;;;;;8.50;7.70;;;;;;;17.36;57.48;96854.28;4752069;29;20210;-81
2023/06/09 02:54:04;;;;;;;8.35;7.45;;;;;;;17.44;57.59;96855.41;4750738;29;20287;-79
2023/06/09 02:56:30;;;;;;;8.05;7.05;;;;;;;17.37;57.94;96866.34;4746227;29;20241;-80
2023/06/09 02:58:57;;;;;;;8.32;7.53;;;;;;;17.34;57.97;96848.53;4751965;29;20324;-81
2023/06/09 03:01:23;;;;;;;7.80;6.97;;;;;;;17.35;58.03;96855.31;4753168;29;20287;-81
2023/06/09 03:03:48;;;;;;;8.07;7.28;;;;;;;17.28;58.15;96843.66;4755927;29;20234;-82
2023/06/09 03:06:15;;;;;;;9.43;7.38;;;;;;;17.31;58.26;96851.75;4753582;29;20199;-82
2023/06/09 03:08:41;;;;;;;7.72;6.95;;;;;;;17.28;58.21;96847.06;4735905;29;20508;-80
2023/06/09 03:11:06;;;;;;;8.32;6.70;;;;;;;17.33;58.18;96848.81;4752173;29;20193;-80
2023/06/09 03:13:32;;;;;;;8.20;7.40;;;;;;;17.36;58.21;96858.75;4739196;29;20221;-80
2023/06/09 03:15:58;;;;;;;8.45;7.28;;;;;;;17.29;58.56;96847.84;4736292;29;20109;-79
2023/06/09 03:18:24;;;;;;;8.27;7.45;;;;;;;17.31;58.72;96846.47;4742252;29;20045;-79
2023/06/09 03:20:50;;;;;;;7.80;7.10;;;;;;;17.23;58.99;96847.94;4758448;29;20518;-79
2023/06/09 03:23:17;;;;;;;8.07;7.18;;;;;;;17.16;59.17;96842.31;4726502;29;20265;-79
2023/06/09 03:25:42;;;;;;;7.70;6.90;;;;;;;17.23;59.37;96847.16;4756305;29;20117;-79
2023/06/09 03:28:08;;;;;;;8.32;7.47;;;;;;;17.30;59.09;96852.81;4757236;29;20649;-79
2023/06/09 03:30:33;;;;;;;8.23;7.43;;;;;;;17.31;59.30;96849.13;4738002;29;20260;-81
2023/06/09 03:32:58;;;;;;;9.30;7.68;;;;;;;17.30;59.29;96841.50;4733171;29;20220;-79
2023/06/09 03:35:24;;;;;;;8.93;6.93;;;;;;;17.40;59.04;96849.97;4741188;29;20799;-79
2023/06/09 03:37:49;;;;;;;8.30;7.13;;;;;;;17.38;58.91;96849.47;4726207;29;20146;-79
2023/06/09 03:40:15;;;;;;;8.15;7.35;;;;;;;17.38;60.06;96864.50;4741871;29;20276;-81
2023/06/09 03:42:40;;;;;;;8.55;7.20;;;;;;;17.49;59.23;96859.78;4735511;29;20250;-79
2023/06/09 03:45:06;;;;;;;7.57;6.78;;;;;;;17.55;59.28;96863.88;4741339;29;20037;-78
2023/06/09 03:47:32;;;;;;;9.27;7.30;;;;;;;17.43;59.40;96845.97;4754385;29;20405;-79
2023/06/09 03:49:57;;;;;;;9.85;8.10;;;;;;;17.65;59.67;96876.81;4753371;29;20782;-80
2023/06/09 03:52:25;;;;;;;8.15;7.35;;;;;;;17.67;60.00;96871.25;4726099;29;20264;-79
2023/06/09 03:54:51;;;;;;;9.15;7.97;;;;;;;17.67;59.98;96869.41;4741691;29;20147;-79
2023/06/09 03:57:16;;;;;;;9.00;8.13;;;;;;;17.71;59.60;96869.56;4755248;29;20217;-80
2023/06/09 03:59:42;;;;;;;9.05;7.60;;;;;;;17.64;59.03;96859.44;4741604;29;20193;-79
2023/06/09 04:02:07;;;;;;;8.38;7.20;;;;;;;17.73;59.01;96867.41;4739670;29;20208;-79
2023/06/09 04:04:33;;;;;;;7.65;6.88;;;;;;;17.74;58.79;96853.97;4748607;29;20221;-79
2023/06/09 04:06:59;;;;;;;8.35;7.45;;;;;;;17.75;58.88;96865.25;4750016;29;20208;-79
2023/06/09 04:09:25;;;;;;;9.40;7.88;;;;;;;17.71;59.56;96867.72;4763192;29;20175;-79
2023/06/09 04:11:51;;;;;;;9.02;8.13;;;;;;;17.71;59.82;96864.31;4725407;29;20205;-81
2023/06/09 04:14:16;;;;;;;8.20;7.40;;;;;;;17.66;59.59;96859.16;4741314;29;20297;-79
2023/06/09 04:16:43;;;;;;;8.63;7.72;;;;;;;17.71;59.54;96856.41;4728212;29;20189;-79
2023/06/09 04:19:08;;;;;;;8.98;7.45;;;;;;;17.72;59.79;96869.28;4744481;29;21005;-79
2023/06/09 04:21:35;;;;;;;9.40;8.23;;;;;;;17.77;59.90;96871.81;4760508;29;20261;-79
2023/06/09 04:24:01;;;;;;;9.18;8.23;;;;;;;17.84;59.99;96865.31;4758498;29;20591;-79
2023/06/09 04:26:27;;;;;;;10.10;8.65;;;;;;;17.86;60.28;96871.09;4743424;29;20208;-79
2023/06/09 04:28:53;;;;;;;10.10;8.73;;;;;;;17.83;60.25;96872.47;4759740;29;20673;-80
2023/06/09 04:31:23;;;;;;;9.45;8.40;;;;;;;17.78;60.76;96859.41;4759597;29;20647;-79
2023/06/09 04:33:51;;;;;;;10.13;9.02;;;;;;;17.89;60.85;96871.31;4738570;29;20683;-79
2023/06/09 04:36:17;;;;;;;9.85;8.70;;;;;;;17.93;60.80;96866.97;4745150;29;20238;-79
2023/06/09 04:38:45;;;;;;;10.35;8.52;;;;;;;17.98;60.74;96870.59;4730037;29;20289;-79
2023/06/09 04:41:11;;;;;;;9.80;8.75;;;;;;;18.10;60.36;96870.81;4744354;29;20232;-80
2023/06/09 04:43:39;;;;;;;9.40;8.50;;;;;;;18.21;59.95;96871.34;4757117;29;20333;-78
2023/06/09 04:46:05;;;;;;;9.18;8.27;;;;;;;18.32;60.07;96867.41;4744574;29;20253;-78
2023/06/09 04:48:34;;;;;;;9.82;8.43;;;;;;;18.41;59.97;96862.16;4735881;29;20660;-79
2023/06/09 04:51:01;;;;;;;9.82;8.25;;;;;;;18.52;59.86;96858.16;4745631;29;20647;-79
2023/06/09 04:53:29;;;;;;;9.07;8.18;;;;;;;18.63;59.34;96856.06;4758854;29;20201;-79
2023/06/09 04:55:55;;;;;;;9.63;8.73;;;;;;;18.75;59.06;96869.44;4759837;29;20220;-79
2023/06/09 04:58:21;;;;;;;8.95;8.05;;;;;;;18.79;59.35;96867.75;4774502;29;21852;-80
2023/06/09 05:00:47;;;;;;;9.65;8.60;;;;;;;18.78;59.41;96866.22;4752254;29;20216;-80
2023/06/09 05:03:13;;;;;;;9.30;8.30;;;;;;;18.75;59.22;96861.53;4746976;29;20257;-79
2023/06/09 05:05:42;;;;;;;8.98;8.02;;;;;;;19.02;58.65;96865.06;4756496;29;20282;-80
2023/06/09 05:08:08;;;;;;;9.45;8.55;;;;;;;18.97;58.61;96876.53;4769272;29;20293;-78
2023/06/09 05:10:33;;;;;;;9.13;8.18;;;;;;;19.01;58.40;96858.22;4740072;29;20641;-79
2023/06/09 05:12:59;;;;;;;8.80;7.82;;;;;;;19.11;58.48;96865.88;4758661;29;20297;-80
2023/06/09 05:15:26;;;;;;;8.93;8.02;;;;;;;19.32;57.81;96867.94;4758058;29;20204;-80
2023/06/09 05:17:52;;;;;;;9.00;7.97;;;;;;;19.48;57.32;96865.59;4742896;29;20204;-79
2023/06/09 05:20:18;;;;;;;8.65;7.75;;;;;;;19.45;57.40;96867.00;4725335;29;20395;-80
2023/06/09 05:22:44;;;;;;;9.10;8.00;;;;;;;19.54;57.28;96864.38;4744434;29;20278;-79
2023/06/09 05:25:13;;;;;;;8.50;7.70;;;;;;;19.64;57.50;96867.47;4742654;29;20633;-79
2023/06/09 05:27:38;;;;;;;8.48;7.60;;;;;;;19.73;56.74;96867.47;4756384;29;20205;-79
2023/06/09 05:30:05;;;;;;;9.05;8.13;;;;;;;19.79;56.81;96878.69;4768549;29;20653;-77
2023/06/09 05:32:30;;;;;;;8.50;7.60;;;;;;;19.99;56.55;96874.66;4746221;29;20257;-80
2023/06/09 05:34:56;;;;;;;8.50;7.60;;;;;;;20.02;56.43;96868.75;4757126;29;20333;-79
2023/06/09 05:37:21;;;;;;;7.95;7.20;;;;;;;20.16;55.99;96879.91;4724413;29;20212;-81
2023/06/09 05:39:47;;;;;;;8.32;7.53;;;;;;;20.19;55.40;96873.22;4750757;29;20296;-80
2023/06/09 05:42:13;;;;;;;9.13;8.23;;;;;;;20.24;55.50;96874.91;4756819;29;20698;-79
2023/06/09 05:44:38;;;;;;;8.57;7.75;;;;;;;20.25;55.33;96874.59;4742026;29;20338;-78
2023/06/09 05:47:04;;;;;;;8.13;7.32;;;;;;;20.36;55.21;96883.00;4741433;29;20306;-79
2023/06/09 05:49:30;;;;;;;8.50;7.60;;;;;;;20.48;54.65;96885.75;4743754;29;20208;-78
2023/06/09 05:51:55;;;;;;;8.30;7.60;;;;;;;20.68;54.49;96886.19;4771516;29;20274;-81
2023/06/09 05:54:21;;;;;;;7.65;6.85;;;;;;;20.56;54.29;96886.81;4742502;29;20304;-80
2023/06/09 05:56:48;;;;;;;8.73;7.93;;;;;;;20.74;54.36;96888.34;4739238;29;20215;-80
2023/06/09 05:59:14;;;;;;;8.65;7.80;;;;;;;20.89;54.13;96881.75;4756089;29;20250;-80
2023/06/09 06:01:39;;;;;;;8.48;7.68;;;;;;;20.96;53.78;96891.84;4758230;29;20224;-79
2023/06/09 06:04:05;;;;;;;8.25;7.35;;;;;;;21.00;53.64;96890.09;4740740;29;20198;-80
2023/06/09 06:06:31;;;;;;;8.82;8.00;;;;;;;20.97;54.03;96884.66;4742594;29;20298;-80
2023/06/09 06:08:57;;;;;;;8.43;7.57;;;;;;;21.37;53.17;96890.38;4756724;29;20537;-78
2023/06/09 06:11:22;;;;;;;8.48;7.68;;;;;;;21.41;52.70;96885.97;4758235;29;20205;-80
2023/06/09 06:13:48;;;;;;;8.60;7.80;;;;;;;21.55;52.14;96892.94;4742507;29;20356;-80
2023/06/09 06:16:13;;;;;;;8.43;7.57;;;;;;;21.83;52.02;96903.78;4725977;29;20309;-80
2023/06/09 06:18:39;;;;;;;8.60;7.80;;;;;;;22.01;51.77;96899.88;4754401;29;20216;-80
2023/06/09 06:21:05;;;;;;;8.05;7.25;;;;;;;22.21;50.86;96895.66;4727397;29;20265;-80
2023/06/09 06:23:31;;;;;;;8.45;7.75;;;;;;;22.35;50.71;96902.56;4753317;29;20710;-80
2023/06/09 06:25:56;;;;;;;8.52;7.82;;;;;;;22.52;50.13;96896.31;4740370;29;20702;-81
2023/06/09 06:28:22;;;;;;;7.93;7.10;;;;;;;22.72;50.05;96889.38;4768164;29;20289;-80
2023/06/09 06:30:47;;;;;;;9.27;8.43;;;;;;;22.84;48.70;96892.03;4769566;29;20284;-83
2023/06/09 06:33:13;;;;;;;8.05;7.35;;;;;;;23.14;48.87;96899.81;4757164;29;20214;-80
2023/06/09 06:35:39;;;;;;;8.02;7.22;;;;;;;23.18;48.98;96892.72;4750313;29;20219;-80
2023/06/09 06:38:04;;;;;;;9.40;7.25;;;;;;;23.49;48.31;96889.47;4739051;29;20228;-79
2023/06/09 06:40:30;;;;;;;7.75;7.05;;;;;;;23.55;47.71;96896.09;4752715;29;20297;-80
2023/06/09 06:42:55;;;;;;;7.75;7.00;;;;;;;23.66;47.81;96887.66;4743294;29;20254;-80
2023/06/09 06:45:21;;;;;;;8.25;7.47;;;;;;;23.77;47.08;96907.34;4742263;29;20241;-81
2023/06/09 06:47:49;;;;;;;7.88;7.20;;;;;;;23.84;47.09;96893.50;4744128;29;20089;-79
2023/06/09 06:50:15;;;;;;;8.68;7.97;;;;;;;24.22;46.91;96902.88;4742001;29;20644;-81
2023/06/09 06:52:41;;;;;;;8.07;7.38;;;;;;;24.34;46.46;96894.06;4727096;29;20185;-80
2023/06/09 06:55:07;;;;;;;8.05;7.38;;;;;;;24.35;45.53;96901.72;4756011;29;20276;-81
2023/06/09 06:57:36;;;;;;;8.05;7.20;;;;;;;24.23;45.61;96899.09;4753050;29;21169;-81
2023/06/09 07:00:09;;;;;;;8.95;8.15;;;;;;;24.40;46.12;96896.13;4750787;29;20258;-81
2023/06/09 07:02:35;;;;;;;8.05;7.38;;;;;;;24.34;45.85;96889.50;4755626;29;20227;-80
2023/06/09 07:05:01;;;;;;;8.30;7.60;;;;;;;24.62;45.72;96894.78;4757307;29;20224;-80
2023/06/09 07:07:26;;;;;;;7.88;7.18;;;;;;;24.89;45.37;96899.63;4766361;29;20699;-81
2023/06/09 07:09:52;;;;;;;8.45;7.65;;;;;;;25.15;44.48;96889.19;4756205;29;20260;-80
2023/06/09 07:12:17;;;;;;;8.10;7.40;;;;;;;24.71;44.95;96902.63;4771287;29;20236;-80
2023/06/09 07:14:43;;;;;;;8.15;7.45;;;;;;;24.97;44.36;96906.66;4728271;29;20216;-80
2023/06/09 07:17:08;;;;;;;7.68;6.90;;;;;;;25.30;43.99;96897.53;4756391;29;20170;-80
2023/06/09 07:19:35;;;;;;;7.75;7.07;;;;;;;25.17;44.31;96912.81;4743413;29;20478;-79
2023/06/09 07:22:01;;;;;;;7.65;6.97;;;;;;;25.40;44.39;96912.97;4740990;29;20204;-79
2023/06/09 07:24:26;;;;;;;8.07;7.30;;;;;;;25.42;43.68;96908.84;4737474;29;20214;-81
2023/06/09 07:26:53;;;;;;;7.85;6.97;;;;;;;25.57;43.51;96915.25;4739221;29;20296;-81
2023/06/09 07:29:18;;;;;;;7.70;7.00;;;;;;;25.44;43.53;96921.81;4743787;29;20174;-79
2023/06/09 07:31:44;;;;;;;8.05;7.35;;;;;;;25.60;43.02;96921.75;4742759;29;20109;-79
2023/06/09 07:34:10;;;;;;;8.02;7.43;;;;;;;25.56;42.97;96919.03;4765212;29;20593;-78
2023/06/09 07:36:37;;;;;;;7.70;7.10;;;;;;;26.04;42.41;96926.13;4734063;29;20150;-80
2023/06/09 07:39:03;;;;;;;7.45;6.75;;;;;;;25.90;42.55;96922.00;4728531;29;20289;-80
2023/06/09 07:41:30;;;;;;;7.55;6.95;;;;;;;26.15;42.26;96916.44;4758343;29;20261;-80
2023/06/09 07:43:56;;;;;;;7.15;6.63;;;;;;;26.74;40.98;96919.75;4741866;29;20232;-80
2023/06/09 07:46:22;;;;;;;8.25;6.50;;;;;;;26.86;40.79;96924.16;4758586;29;20178;-81
2023/06/09 07:48:49;;;;;;;7.18;6.53;;;;;;;27.22;40.35;96922.78;4743569;29;20271;-79
2023/06/09 07:51:16;;;;;;;6.82;6.30;;;;;;;27.32;40.31;96924.09;4758640;29;20285;-78
2023/06/09 07:53:42;;;;;;;7.63;6.93;;;;;;;27.18;39.64;96921.19;4753488;29;20262;-80
2023/06/09 07:56:08;;;;;;;7.68;7.05;;;;;;;27.58;39.36;96919.88;4760154;29;20174;-80
2023/06/09 07:58:33;;;;;;;6.95;6.35;;;;;;;27.64;39.08;96913.06;4746781;29;20326;-81
2023/06/09 08:00:58;;;;;;;7.18;6.57;;;;;;;27.65;39.09;96922.63;4753529;29;20256;-81
2023/06/09 08:03:24;;;;;;;7.53;6.90;;;;;;;27.62;38.92;96921.47;4742033;29;20183;-80
2023/06/09 08:05:49;;;;;;;6.20;5.70;;;;;;;28.08;36.67;96914.38;4755453;29;20114;-79
2023/06/09 08:08:15;;;;;;;6.53;5.88;;;;;;;28.24;36.25;96916.84;4741128;29;20209;-79
2023/06/09 08:10:40;;;;;;;6.15;5.65;;;;;;;28.37;35.60;96918.88;4734365;29;20891;-79
2023/06/09 08:13:06;;;;;;;6.60;6.03;;;;;;;28.44;37.12;96907.47;4758345;29;20642;-78
2023/06/09 08:15:32;;;;;;;6.40;5.70;;;;;;;28.62;36.54;96915.72;4747095;29;20245;-79
2023/06/09 08:17:58;;;;;;;6.75;6.15;;;;;;;28.64;35.51;96918.03;4737633;29;20186;-80
2023/06/09 08:20:23;;;;;;;6.32;5.82;;;;;;;28.19;36.68;96917.94;4748747;29;20630;-77
2023/06/09 08:22:49;;;;;;;6.43;5.93;;;;;;;28.38;36.28;96919.66;4755820;29;20345;-78
2023/06/09 08:25:14;;;;;;;6.72;6.05;;;;;;;28.70;36.25;96913.84;4726676;29;20639;-80
2023/06/09 08:27:40;;;;;;;6.85;6.28;;;;;;;28.98;36.08;96907.94;4742627;29;20169;-79
2023/06/09 08:30:07;;;;;;;6.20;5.60;;;;;;;28.64;35.16;96899.28;4763142;29;20197;-81
2023/06/09 08:32:32;;;;;;;6.45;5.95;;;;;;;28.49;35.22;96911.72;4727080;29;20213;-79
2023/06/09 08:34:59;;;;;;;5.70;5.20;;;;;;;28.55;35.23;96902.25;4757277;29;20209;-79
2023/06/09 08:37:25;;;;;;;6.07;5.57;;;;;;;28.99;34.91;96906.03;4740018;29;20189;-79
2023/06/09 08:39:50;;;;;;;5.82;5.38;;;;;;;29.29;34.84;96901.28;4753825;29;20329;-78
2023/06/09 08:42:21;;;;;;;5.60;5.07;;;;;;;29.62;33.48;96902.22;4739284;29;20204;-79
2023/06/09 08:44:47;;;;;;;5.82;5.38;;;;;;;29.50;33.81;96899.88;4755301;29;20282;-80
2023/06/09 08:47:13;;;;;;;5.43;5.03;;;;;;;29.72;32.95;96895.38;4754408;29;20212;-79
2023/06/09 08:49:39;;;;;;;5.75;5.35;;;;;;;30.25;34.41;96883.28;4752271;29;20232;-80
2023/06/09 08:52:05;;;;;;;5.53;5.13;;;;;;;30.09;33.46;96888.97;4766429;29;21023;-79
2023/06/09 08:54:30;;;;;;;5.38;4.93;;;;;;;30.19;33.13;96888.22;4740409;29;20189;-79
2023/06/09 08:56:56;;;;;;;5.68;5.28;;;;;;;30.18;33.34;96894.00;4756223;29;20212;-79
2023/06/09 08:59:22;;;;;;;5.72;5.05;;;;;;;29.97;31.88;96884.75;4740945;29;20197;-79
2023/06/09 09:01:49;;;;;;;5.65;5.22;;;;;;;30.06;32.29;96892.44;4727055;29;20329;-79
2023/06/09 09:04:15;;;;;;;5.63;5.10;;;;;;;30.13;30.85;96881.72;4739943;29;20555;-78
2023/06/09 09:06:41;;;;;;;4.80;4.47;;;;;;;29.84;31.39;96896.97;4760201;29;20759;-77
2023/06/09 09:09:07;;;;;;;4.90;4.60;;;;;;;29.84;31.27;96892.38;4728535;29;20289;-79
2023/06/09 09:11:33;;;;;;;5.35;4.88;;;;;;;30.38;31.60;96889.84;4733906;29;20281;-80
2023/06/09 09:14:07;;;;;;;4.68;4.32;;;;;;;30.35;30.59;96898.66;4727204;29;20259;-78
2023/06/09 09:16:33;;;;;;;4.57;4.28;;;;;;;29.95;30.19;96895.06;4724333;29;20603;-80
2023/06/09 09:18:58;;;;;;;4.88;4.47;;;;;;;30.38;30.16;96891.75;4757138;29;20307;-80
2023/06/09 09:21:24;;;;;;;4.75;4.32;;;;;;;30.34;29.91;96896.31;4724760;29;20714;-79
2023/06/09 09:24:01;;;;;;;5.10;4.72;;;;;;;30.65;29.40;96892.16;4760967;29;20665;-78
2023/06/09 09:26:28;;;;;;;4.93;4.53;;;;;;;30.58;29.03;96890.22;4734525;29;20121;-77
2023/06/09 09:28:56;;;;;;;4.25;3.95;;;;;;;31.06;28.93;96891.78;4750052;29;20202;-79
2023/06/09 09:31:29;;;;;;;4.90;4.47;;;;;;;31.10;30.17;96895.25;4770029;29;20340;-80
2023/06/09 09:33:54;;;;;;;4.80;4.22;;;;;;;31.50;29.53;96904.00;4757462;29;20220;-79
2023/06/09 09:36:20;;;;;;;4.60;4.30;;;;;;;31.88;28.35;96890.78;4758285;29;20611;-79
2023/06/09 09:38:45;;;;;;;4.30;4.00;;;;;;;31.63;27.76;96884.72;4751683;29;20208;-79
2023/06/09 09:41:14;;;;;;;5.32;4.93;;;;;;;31.76;29.40;96885.06;4735215;29;20327;-79
2023/06/09 09:43:40;;;;;;;4.40;4.10;;;;;;;31.61;27.42;96889.75;4760940;29;20835;-79
2023/06/09 09:46:07;;;;;;;5.22;4.82;;;;;;;31.59;27.69;96879.38;4728663;29;20254;-78
2023/06/09 09:48:36;;;;;;;4.32;4.03;;;;;;;31.97;27.25;96876.88;4744548;29;20174;-77
2023/06/09 09:51:03;;;;;;;4.63;4.32;;;;;;;31.55;26.94;96884.00;4733086;29;20124;-79
2023/06/09 09:53:29;;;;;;;5.63;4.60;;;;;;;31.85;27.60;96886.16;4744216;29;20216;-80
2023/06/09 09:55:57;;;;;;;4.93;4.53;;;;;;;31.77;27.93;96890.03;4735860;29;20142;-77
2023/06/09 09:58:30;;;;;;;5.18;4.68;;;;;;;31.43;28.77;96890.53;4743751;29;20160;-79
2023/06/09 10:00:58;;;;;;;4.80;4.40;;;;;;;31.41;28.71;96874.03;4759523;29;20228;-77
2023/06/09 10:03:25;;;;;;;4.78;4.38;;;;;;;31.54;28.53;96871.69;4728652;29;20189;-79
2023/06/09 10:05:52;;;;;;;5.13;4.47;;;;;;;31.21;28.69;96881.00;4743914;29;20412;-77
2023/06/09 10:08:26;;;;;;;4.43;4.13;;;;;;;31.71;28.18;96872.78;4758350;29;20055;-79
2023/06/09 10:10:53;;;;;;;4.43;4.13;;;;;;;32.15;28.55;96878.72;4745394;29;20170;-78
2023/06/09 10:13:26;;;;;;;4.07;3.70;;;;;;;32.24;27.60;96865.59;4735217;29;20243;-79
2023/06/09 10:15:52;;;;;;;4.30;4.00;;;;;;;32.17;27.35;96887.19;4759013;29;20289;-78
2023/06/09 10:18:20;;;;;;;4.40;4.10;;;;;;;32.00;27.90;96875.34;4742500;29;20254;-80
2023/06/09 10:20:50;;;;;;;4.60;4.30;;;;;;;32.66;27.44;96874.53;4738883;29;20170;-81
2023/06/09 10:23:16;;;;;;;4.07;3.88;;;;;;;32.32;26.21;96866.31;4756795;29;20228;-80
2023/06/09 10:25:42;;;;;;;4.28;3.90;;;;;;;32.65;25.78;96854.91;4742916;29;20553;-78
2023/06/09 10:28:09;;;;;;;5.25;4.75;;;;;;;32.84;25.74;96866.31;4756392;29;20231;-79
2023/06/09 10:30:35;;;;;;;4.82;4.30;;;;;;;32.72;25.20;96880.28;4757943;29;20182;-80
2023/06/09 10:33:29;;;;;;;4.28;3.97;;;;;;;32.60;26.08;96871.50;4758121;29;20667;-79
2023/06/09 10:35:57;;;;;;;4.15;3.85;;;;;;;32.57;24.72;96860.72;4758437;29;20584;-78
2023/06/09 10:38:42;;;;;;;4.15;3.85;;;;;;;33.20;27.13;96865.97;4767401;29;20616;-78
2023/06/09 10:41:31;;;;;;;3.85;3.58;;;;;;;33.22;25.12;96859.00;4757828;29;20209;-79
2023/06/09 10:44:22;;;;;;;4.25;3.95;;;;;;;33.32;24.75;96865.44;4744018;29;20221;-79
2023/06/09 10:46:49;;;;;;;4.25;3.88;;;;;;;33.41;26.05;96863.03;4753099;29;20194;-79
2023/06/09 10:49:23;;;;;;;4.50;4.20;;;;;;;33.38;25.19;96860.38;4735031;29;20179;-79
2023/06/09 10:51:49;;;;;;;4.55;3.90;;;;;;;33.39;24.93;96862.66;4749194;29;20630;-79
2023/06/09 10:54:15;;;;;;;4.15;3.95;;;;;;;33.28;25.06;96859.34;4754733;29;20283;-77
2023/06/09 10:56:48;;;;;;;4.57;4.28;;;;;;;33.53;23.97;96860.97;4756920;29;20341;-79
2023/06/09 10:59:25;;;;;;;5.22;4.93;;;;;;;33.61;25.00;96856.28;4741696;29;20285;-78
2023/06/09 11:02:03;;;;;;;4.35;4.05;;;;;;;33.75;24.94;96859.56;4770052;29;20302;-78
2023/06/09 11:04:49;;;;;;;4.88;4.57;;;;;;;33.36;24.90;96863.47;4752809;29;20792;-79
2023/06/09 11:07:17;;;;;;;4.80;4.40;;;;;;;32.91;25.63;96865.47;4768334;29;20093;-79
2023/06/09 11:10:02;;;;;;;5.25;4.85;;;;;;;33.20;25.67;96855.94;4752705;29;20186;-78
2023/06/09 11:12:29;;;;;;;5.30;4.95;;;;;;;33.09;24.79;96862.59;4765813;29;20273;-80
2023/06/09 11:15:02;;;;;;;5.13;4.80;;;;;;;32.96;26.13;96859.66;4761427;29;20224;-79
2023/06/09 11:17:39;;;;;;;5.22;4.82;;;;;;;33.43;25.28;96842.97;4743693;29;20276;-80
2023/06/09 11:20:11;;;;;;;5.43;5.05;;;;;;;33.28;26.46;96842.38;4757845;29;20502;-78
2023/06/09 11:22:47;;;;;;;5.40;5.03;;;;;;;33.24;25.80;96850.50;4753404;29;20739;-79
2023/06/09 11:25:18;;;;;;;5.20;4.80;;;;;;;33.16;26.05;96843.66;4756066;29;20287;-78
2023/06/09 11:28:07;;;;;;;5.35;4.97;;;;;;;32.16;26.84;96840.63;4772355;29;20197;-78
2023/06/09 11:30:32;;;;;;;5.32;4.95;;;;;;;32.37;27.66;96845.09;4735208;29;20652;-77
2023/06/09 11:33:05;;;;;;;5.35;4.85;;;;;;;32.17;27.31;96841.41;4739535;29;20109;-79